Strona główna
METAR-TAF:

METAR-TAF

Lotnisko :

Békéscsaba, Węgry

Szerokość geograficzna: 46-41-00N, Długość geograficzna: 021-09-45E, wysokość: 86 m

Aktualna obserwacja pogody

Raport powstał 1 godzina i 55 minut temu, godzina 17:45 UTC
Wiatr 3 kt od północ
Temperatura 14°C
Wilgotność 67%
Ciśnienie 1013 hPa
Widzialność 10 km lub więcej
Mało chmury na wysokości 4000 ft
Mało chmury na wysokości 4000 ft, Cumulusy wypiętrznone.
Przerywane chmury na wysokości 10000 ft

METAR: LHBC 301745Z 01003KT 9999 FEW040 FEW040TCU BKN100 14/08 Q1013

czas: 21:40 (19:40 UTC)


TAF: brakujący

Obserwacja i prognoza pogody dla ponad 4000 lotnisk (raport METAR i TAF).

Dostępne stacje oznaczono żółtymi i czerwonymi punktami na mapie.

Najedź kursorem aby zobaczyć nazwę stacji.

Kliknij aby zobaczyć obserwacje i prognozy pogody.

Aby zmienić mapę: kliknij na zielony przycisk z czarnym krzyżykiem, aby powiększyć; na zielony przycisk z myślnikiem, aby pomniejszyć; na zielone strzałki, aby przejść do map sąsiednich.


METAR-TAF: